Time;durP1;ratioP1;P1;durP2;ratioP2;P2;SDS_P1;SDS_P2;PMS_P1;PMS_P2;Temp;Humidity;BMP_temperature;BMP_pressure;BME280_temperature;BME280_humidity;BME280_pressure;Samples;Min_cycle;Max_cycle;Signal;HPM_P1;HPM_P2
2021/06/19 00:01:01;;;;;;;5.17;3.90;;;25.30;84.40;33.10;99460.00;;;;5089067;28;20233;-68
2021/06/19 00:03:27;;;;;;;6.07;5.17;;;25.30;84.40;33.20;99478.00;;;;5071935;28;20192;-69
2021/06/19 00:05:53;;;;;;;5.57;4.60;;;25.30;84.40;33.10;99464.00;;;;5088977;28;20679;-69
2021/06/19 00:08:18;;;;;;;5.50;4.40;;;25.30;84.40;33.00;99464.00;;;;5088735;28;20669;-69
2021/06/19 00:10:44;;;;;;;5.77;5.17;;;25.30;84.40;33.00;99464.00;;;;5088705;28;20246;-69
2021/06/19 00:13:10;;;;;;;5.90;4.80;;;25.30;84.40;33.10;99467.00;;;;5088213;28;20272;-69
2021/06/19 00:15:36;;;;;;;5.27;4.10;;;25.30;84.50;33.10;99463.00;;;;5088676;28;20187;-68
2021/06/19 00:18:02;;;;;;;6.10;5.00;;;25.30;84.50;33.00;99469.00;;;;5088821;28;20236;-68
2021/06/19 00:20:29;;;;;;;5.47;4.50;;;25.30;84.50;33.00;99465.00;;;;5088874;28;20450;-70
2021/06/19 00:22:55;;;;;;;6.20;4.87;;;25.30;84.50;33.00;99462.00;;;;5071152;28;20845;-68
2021/06/19 00:25:23;;;;;;;5.57;4.77;;;25.30;84.50;33.20;99466.00;;;;5089007;28;20427;-68
2021/06/19 00:27:49;;;;;;;6.23;4.70;;;25.20;84.50;32.90;99454.00;;;;5088247;28;20701;-69
2021/06/19 00:30:15;;;;;;;5.20;4.37;;;25.20;84.50;32.90;99452.00;;;;5088492;28;20477;-69
2021/06/19 00:32:42;;;;;;;6.00;4.83;;;25.20;84.50;32.80;99459.00;;;;5088797;28;20820;-68
2021/06/19 00:35:09;;;;;;;5.30;4.60;;;25.20;84.50;32.90;99461.00;;;;5088248;28;20440;-69
2021/06/19 00:37:35;;;;;;;6.50;4.80;;;25.20;84.50;33.00;99467.00;;;;5088443;28;20477;-69
2021/06/19 00:40:02;;;;;;;5.57;4.33;;;25.20;84.50;33.00;99461.00;;;;5088320;28;20434;-69
2021/06/19 00:42:28;;;;;;;5.67;4.70;;;25.20;84.60;33.00;99460.00;;;;5088334;28;20468;-69
2021/06/19 00:44:56;;;;;;;6.40;4.73;;;25.20;84.50;32.90;99455.00;;;;5088422;28;20428;-69
2021/06/19 00:47:26;;;;;;;5.77;4.50;;;25.20;84.60;33.00;99433.00;;;;5088331;28;20206;-69
2021/06/19 00:49:52;;;;;;;5.77;5.17;;;25.20;84.60;32.90;99461.00;;;;5087523;28;20473;-68
2021/06/19 00:52:18;;;;;;;5.57;4.80;;;25.20;84.60;32.90;99469.00;;;;5071756;28;20544;-68
2021/06/19 00:54:43;;;;;;;5.80;5.00;;;25.20;84.60;32.90;99464.00;;;;5070885;28;21015;-68
2021/06/19 00:57:10;;;;;;;6.27;5.47;;;25.20;84.60;33.10;99463.00;;;;5088525;28;20199;-68
2021/06/19 00:59:36;;;;;;;6.50;4.50;;;25.20;84.60;33.00;99461.00;;;;5090770;28;20181;-68
2021/06/19 01:02:03;;;;;;;5.77;5.07;;;25.20;84.60;32.90;99455.00;;;;5074356;28;20465;-69
2021/06/19 01:04:29;;;;;;;6.40;5.07;;;25.20;84.70;32.90;99447.00;;;;5091362;28;20512;-68
2021/06/19 01:06:56;;;;;;;5.80;4.90;;;25.20;84.70;32.90;99457.00;;;;5074753;28;20482;-68
2021/06/19 01:09:21;;;;;;;6.07;5.27;;;25.20;84.60;33.00;99461.00;;;;5091170;28;20496;-69
2021/06/19 01:11:48;;;;;;;6.60;5.33;;;25.20;84.70;32.90;99453.00;;;;5091943;28;20532;-68
2021/06/19 01:14:13;;;;;;;5.40;4.67;;;25.20;84.70;32.90;99467.00;;;;5074603;28;20182;-68
2021/06/19 01:16:39;;;;;;;6.13;5.07;;;25.20;84.70;32.90;99468.00;;;;5090982;28;20465;-68
2021/06/19 01:19:05;;;;;;;6.53;4.90;;;25.20;84.70;32.90;99466.00;;;;5074499;28;20188;-69
2021/06/19 01:21:31;;;;;;;6.10;4.77;;;25.10;84.60;33.00;99466.00;;;;5091980;28;20695;-69
2021/06/19 01:23:58;;;;;;;6.70;5.00;;;25.10;84.70;33.00;99461.00;;;;5074444;28;20440;-70
2021/06/19 01:26:26;;;;;;;6.40;5.50;;;25.10;84.60;33.10;99471.00;;;;5091988;28;20502;-69
2021/06/19 01:28:52;;;;;;;5.70;4.50;;;25.10;84.60;32.90;99462.00;;;;5091107;28;20432;-70
2021/06/19 01:31:18;;;;;;;5.40;4.40;;;25.10;84.70;32.90;99467.00;;;;5091273;28;20488;-69
2021/06/19 01:33:45;;;;;;;6.80;4.87;;;25.10;84.70;32.90;99450.00;;;;5091271;28;20430;-69
2021/06/19 01:36:12;;;;;;;6.57;5.50;;;25.10;84.70;33.10;99460.00;;;;5091682;28;20536;-69
2021/06/19 01:38:42;;;;;;;6.53;5.20;;;25.10;84.70;33.00;99463.00;;;;5074453;28;20434;-70
2021/06/19 01:41:17;;;;;;;5.97;5.03;;;25.10;85.60;32.80;99462.00;;;;5091007;28;21015;-69
2021/06/19 01:43:45;;;;;;;6.93;5.57;;;25.10;84.80;32.80;99457.00;;;;5092732;28;20445;-69
2021/06/19 01:46:11;;;;;;;7.47;5.20;;;25.10;84.70;32.80;99449.00;;;;5073213;28;20526;-70
2021/06/19 01:48:37;;;;;;;5.73;4.90;;;25.10;84.80;32.90;99464.00;;;;5074493;28;20434;-68
2021/06/19 01:51:03;;;;;;;8.13;5.63;;;25.00;84.70;32.80;99458.00;;;;5090669;28;20835;-69
2021/06/19 01:53:29;;;;;;;6.00;4.77;;;25.10;84.80;32.90;99457.00;;;;5090978;28;20883;-69
2021/06/19 01:55:55;;;;;;;6.50;5.43;;;25.00;84.70;32.90;99459.00;;;;5073824;28;20433;-69
2021/06/19 01:58:20;;;;;;;6.37;5.20;;;25.00;84.70;32.80;99443.00;;;;5090955;28;20438;-69
2021/06/19 02:00:46;;;;;;;6.00;5.37;;;25.00;84.70;33.00;99440.00;;;;5089876;28;20183;-68
2021/06/19 02:03:15;;;;;;;7.07;5.60;;;25.00;84.70;32.90;99441.00;;;;5091830;28;20187;-84
2021/06/19 02:05:40;;;;;;;5.83;5.00;;;25.00;85.60;32.70;99436.00;;;;5073547;28;20187;-83
2021/06/19 02:08:08;;;;;;;6.73;5.07;;;25.00;84.70;32.70;99442.00;;;;5090690;28;20542;-82
2021/06/19 02:10:36;;;;;;;7.43;5.10;;;25.00;84.70;32.80;99433.00;;;;5091430;28;20207;-81
2021/06/19 02:13:04;;;;;;;7.10;5.30;;;25.00;84.70;32.80;99439.00;;;;5090509;28;20439;-86
2021/06/19 02:15:30;;;;;;;5.80;5.10;;;25.00;84.70;32.70;99438.00;;;;5090125;28;20441;-84
2021/06/19 02:17:56;;;;;;;6.43;5.73;;;25.00;84.70;32.80;99444.00;;;;5074125;28;20479;-84
2021/06/19 02:20:22;;;;;;;6.33;5.73;;;25.00;84.70;32.80;99445.00;;;;5089830;28;21015;-83
2021/06/19 02:22:49;;;;;;;6.90;6.20;;;25.00;84.70;32.80;99446.00;;;;5073768;28;20632;-85
2021/06/19 02:25:17;;;;;;;6.10;5.00;;;25.00;84.80;32.90;99444.00;;;;5090333;28;20490;-82
2021/06/19 02:28:05;;;;;;;6.43;5.47;;;25.00;84.80;32.80;99456.00;;;;5073257;28;21110;-84
2021/06/19 02:30:42;;;;;;;6.20;5.40;;;25.00;84.80;32.70;99450.00;;;;5089932;28;20561;-84
2021/06/19 02:33:08;;;;;;;6.00;5.13;;;25.00;84.80;32.70;99449.00;;;;5090197;28;20719;-83
2021/06/19 02:35:37;;;;;;;7.13;6.17;;;25.00;84.80;32.70;99430.00;;;;5089723;28;21088;-82
2021/06/19 02:38:03;;;;;;;6.70;5.60;;;25.00;84.80;32.70;99441.00;;;;5090555;28;20912;-84
2021/06/19 02:40:29;;;;;;;6.27;5.67;;;25.00;84.80;32.80;99456.00;;;;5089681;28;20866;-82
2021/06/19 02:42:56;;;;;;;5.93;5.30;;;24.90;84.70;32.80;99460.00;;;;5090184;28;21038;-83
2021/06/19 02:45:22;;;;;;;6.33;5.73;;;24.90;84.70;32.70;99459.00;;;;5072899;28;20211;-83
2021/06/19 02:47:53;;;;;;;6.67;5.87;;;24.90;84.70;32.70;99456.00;;;;5089851;28;20481;-83
2021/06/19 02:50:30;;;;;;;6.40;5.33;;;24.90;84.70;32.70;99452.00;;;;5072636;28;20226;-83
2021/06/19 02:52:57;;;;;;;6.17;5.30;;;24.90;84.70;32.70;99450.00;;;;5074809;28;20534;-82
2021/06/19 02:55:35;;;;;;;6.60;5.90;;;24.90;84.80;32.80;99447.00;;;;5089492;28;20492;-83
2021/06/19 02:58:02;;;;;;;6.50;5.70;;;24.90;84.80;32.80;99449.00;;;;5089869;28;20799;-82
2021/06/19 03:00:29;;;;;;;8.03;5.37;;;24.90;84.80;32.70;99443.00;;;;5089180;28;20517;-83
2021/06/19 03:02:54;;;;;;;6.33;5.47;;;24.90;84.80;32.70;99437.00;;;;5090871;28;20456;-81
2021/06/19 03:05:25;;;;;;;5.80;5.20;;;24.90;84.80;32.80;99447.00;;;;5089533;28;20837;-82
2021/06/19 03:07:52;;;;;;;7.10;6.10;;;24.90;84.80;32.70;99436.00;;;;5090020;28;20211;-82
2021/06/19 03:10:32;;;;;;;6.80;6.10;;;24.90;84.80;32.60;99440.00;;;;5089122;28;20470;-82
2021/06/19 03:12:58;;;;;;;6.67;5.93;;;24.90;84.80;32.60;99453.00;;;;5089591;28;20457;-83
2021/06/19 03:15:24;;;;;;;6.17;5.33;;;24.90;84.80;32.60;99449.00;;;;5089720;28;20461;-83
2021/06/19 03:17:51;;;;;;;6.90;5.87;;;24.80;84.80;32.60;99457.00;;;;5105957;28;20472;-84
2021/06/19 03:20:17;;;;;;;6.60;5.77;;;24.80;84.70;32.50;99459.00;;;;5089645;28;20848;-83
2021/06/19 03:22:57;;;;;;;6.50;5.70;;;24.80;84.70;32.70;99459.00;;;;5088665;28;20457;-82
2021/06/19 03:25:36;;;;;;;7.03;5.80;;;24.80;84.70;32.60;99468.00;;;;5089182;28;20943;-83
2021/06/19 03:28:04;;;;;;;6.77;5.80;;;24.80;84.80;32.50;99468.00;;;;5089497;28;20541;-84
2021/06/19 03:30:32;;;;;;;6.77;6.07;;;24.80;84.80;32.60;99474.00;;;;5072203;28;20486;-82
2021/06/19 03:32:58;;;;;;;6.30;5.70;;;24.80;84.80;32.60;99475.00;;;;5090076;28;20551;-82
2021/06/19 03:35:24;;;;;;;6.80;5.83;;;24.80;84.80;32.50;99480.00;;;;5056116;28;20876;-82
2021/06/19 03:37:51;;;;;;;7.00;6.07;;;24.80;84.80;32.50;99474.00;;;;5088180;28;20207;-83
2021/06/19 03:40:17;;;;;;;6.67;5.87;;;24.80;84.90;32.50;99477.00;;;;5089206;28;20433;-84
2021/06/19 03:42:43;;;;;;;6.67;5.70;;;24.80;84.80;32.50;99487.00;;;;5055028;28;20462;-83
2021/06/19 03:45:10;;;;;;;6.70;5.67;;;24.80;84.90;32.50;99494.00;;;;5089303;28;20429;-86
2021/06/19 03:47:36;;;;;;;7.13;6.43;;;24.80;84.90;32.40;99501.00;;;;5071737;28;20457;-84
2021/06/19 03:50:04;;;;;;;7.00;6.30;;;24.80;84.90;32.40;99494.00;;;;5072613;28;20501;-84
2021/06/19 03:52:29;;;;;;;6.70;5.90;;;24.80;85.70;32.50;99493.00;;;;5089678;28;20463;-85
2021/06/19 03:54:55;;;;;;;6.60;5.83;;;24.80;84.90;32.40;99486.00;;;;5072500;28;20450;-82
2021/06/19 03:57:29;;;;;;;6.00;5.10;;;24.70;84.70;32.60;99500.00;;;;5088976;28;20204;-83
2021/06/19 03:59:54;;;;;;;6.63;5.87;;;24.70;84.80;32.50;99498.00;;;;5088759;28;20175;-82
2021/06/19 04:02:20;;;;;;;7.43;6.63;;;24.70;84.80;32.40;99491.00;;;;5088518;28;20522;-69
2021/06/19 04:04:46;;;;;;;7.43;6.23;;;24.70;84.80;32.40;99502.00;;;;5088979;28;20508;-69
2021/06/19 04:07:12;;;;;;;7.60;6.50;;;24.70;84.70;32.40;99504.00;;;;5088253;28;20224;-69
2021/06/19 04:09:38;;;;;;;6.90;5.70;;;24.70;84.80;32.60;99510.00;;;;5088795;28;20494;-69
2021/06/19 04:12:05;;;;;;;6.87;6.17;;;24.70;84.70;32.40;99504.00;;;;5088326;28;20743;-69
2021/06/19 04:14:31;;;;;;;6.73;5.53;;;24.70;84.70;32.30;99495.00;;;;5072160;28;20449;-70
2021/06/19 04:16:56;;;;;;;6.73;6.03;;;24.70;84.80;32.50;99495.00;;;;5087863;28;20793;-69
2021/06/19 04:19:22;;;;;;;8.27;6.80;;;24.70;84.70;32.50;99499.00;;;;5071798;28;20218;-69
2021/06/19 04:21:48;;;;;;;6.60;5.73;;;24.70;84.70;32.50;99505.00;;;;5089426;28;20199;-69
2021/06/19 04:24:13;;;;;;;7.30;6.60;;;24.70;84.70;32.40;99493.00;;;;5088892;28;20776;-69
2021/06/19 04:26:39;;;;;;;7.47;6.20;;;24.70;84.80;32.30;99507.00;;;;5088054;28;20206;-69
2021/06/19 04:29:05;;;;;;;6.60;5.90;;;24.70;84.80;32.60;99497.00;;;;5089751;28;20669;-70
2021/06/19 04:31:31;;;;;;;7.37;6.10;;;24.70;84.70;32.40;99514.00;;;;5088414;28;20288;-69
2021/06/19 04:34:02;;;;;;;6.97;6.23;;;24.70;84.80;32.50;99515.00;;;;5093171;28;20183;-69
2021/06/19 04:36:28;;;;;;;6.93;6.23;;;24.70;84.80;32.40;99508.00;;;;5092789;28;20464;-69
2021/06/19 04:38:54;;;;;;;7.40;6.30;;;24.70;84.80;32.30;99513.00;;;;5092769;28;20986;-69
2021/06/19 04:42:07;;;;;;;6.50;5.80;;;24.70;84.90;32.40;99517.00;;;;5092416;28;20473;-69
2021/06/19 04:44:19;;;;;;;6.43;5.73;;;24.70;84.80;32.20;99511.00;;;;5081895;28;20526;-69
2021/06/19 04:46:45;;;;;;;6.23;5.53;;;24.70;84.90;32.30;99514.00;;;;5092266;28;20938;-69
2021/06/19 04:49:12;;;;;;;6.77;6.07;;;24.70;84.90;32.40;99505.00;;;;5092077;28;20452;-70
2021/06/19 04:51:37;;;;;;;6.90;6.20;;;24.70;85.00;32.40;99503.00;;;;5092277;28;20461;-69
2021/06/19 04:54:03;;;;;;;7.10;6.40;;;24.70;85.00;32.30;99481.00;;;;5092381;28;20950;-69
2021/06/19 04:56:29;;;;;;;6.67;6.07;;;24.70;85.00;32.50;99505.00;;;;5074793;28;20676;-69
2021/06/19 04:58:55;;;;;;;6.77;6.07;;;24.70;85.90;32.20;99483.00;;;;5092326;28;20448;-69
2021/06/19 05:01:20;;;;;;;6.23;5.60;;;24.70;85.00;32.40;99496.00;;;;5091888;28;20206;-70
2021/06/19 05:03:46;;;;;;;6.47;5.77;;;24.60;85.00;32.40;99508.00;;;;5091487;28;20595;-69
2021/06/19 05:06:12;;;;;;;7.60;6.10;;;24.60;85.00;32.40;99507.00;;;;5092139;28;20239;-70
2021/06/19 05:08:39;;;;;;;7.10;6.17;;;24.60;85.00;32.30;99501.00;;;;5092561;28;20245;-70
2021/06/19 05:11:05;;;;;;;7.53;6.20;;;24.60;85.10;32.40;99505.00;;;;5092149;28;20223;-69
2021/06/19 05:13:31;;;;;;;6.20;5.23;;;24.60;85.10;32.40;99507.00;;;;5074737;28;20846;-69
2021/06/19 05:15:56;;;;;;;6.00;5.40;;;24.60;85.10;32.30;99505.00;;;;5093042;28;20633;-70
2021/06/19 05:18:22;;;;;;;7.50;6.03;;;24.60;85.20;32.30;99491.00;;;;5091487;28;20245;-69
2021/06/19 05:20:48;;;;;;;6.53;5.83;;;24.60;85.20;32.40;99505.00;;;;5091624;28;20179;-70
2021/06/19 05:23:14;;;;;;;8.07;5.50;;;24.60;85.20;32.30;99507.00;;;;5091350;28;20187;-71
2021/06/19 05:25:39;;;;;;;6.10;5.30;;;24.60;85.20;32.40;99510.00;;;;5092851;28;20176;-70
2021/06/19 05:28:05;;;;;;;6.90;6.20;;;24.60;85.20;32.30;99513.00;;;;5091899;28;20179;-69
2021/06/19 05:30:31;;;;;;;6.93;6.23;;;24.60;85.20;32.30;99502.00;;;;5091461;28;20673;-70
2021/06/19 05:32:57;;;;;;;7.13;5.90;;;24.60;85.30;32.30;99506.00;;;;5091237;28;20457;-70
2021/06/19 05:35:24;;;;;;;9.00;6.07;;;24.60;85.30;32.20;99526.00;;;;5091343;28;20430;-70
2021/06/19 05:37:50;;;;;;;5.97;5.37;;;24.60;85.30;32.30;99510.00;;;;5090571;28;20676;-70
2021/06/19 05:40:16;;;;;;;6.50;5.47;;;24.60;85.40;32.20;99525.00;;;;5091842;28;20992;-70
2021/06/19 05:42:41;;;;;;;6.73;5.83;;;24.60;85.40;32.40;99523.00;;;;5074101;28;20465;-70
2021/06/19 05:45:08;;;;;;;7.93;6.27;;;24.60;85.40;32.30;99529.00;;;;5073587;28;20778;-70
2021/06/19 05:47:34;;;;;;;6.80;5.90;;;24.60;85.50;32.20;99523.00;;;;5073662;28;20234;-70
2021/06/19 05:50:00;;;;;;;7.13;6.07;;;24.60;85.50;32.30;99525.00;;;;5090927;28;20564;-70
2021/06/19 05:52:26;;;;;;;6.17;5.40;;;24.60;85.40;32.40;99527.00;;;;5090799;28;20880;-70
2021/06/19 05:54:52;;;;;;;6.07;5.33;;;24.60;85.50;32.20;99531.00;;;;5091152;28;20184;-70
2021/06/19 05:57:19;;;;;;;6.30;5.43;;;24.60;85.40;32.30;99530.00;;;;5092558;28;20808;-70
2021/06/19 05:59:45;;;;;;;7.00;6.30;;;24.60;85.40;32.20;99530.00;;;;5090428;28;20843;-70
2021/06/19 06:02:10;;;;;;;6.70;5.77;;;24.60;85.50;32.20;99531.00;;;;5074082;28;20461;-70
2021/06/19 06:04:36;;;;;;;6.60;5.90;;;24.60;85.50;32.20;99515.00;;;;5091626;28;20179;-70
2021/06/19 06:07:02;;;;;;;8.97;5.90;;;24.60;85.50;32.10;99523.00;;;;5090597;28;20408;-70
2021/06/19 06:09:28;;;;;;;6.90;5.60;;;24.60;85.50;32.20;99529.00;;;;5073489;28;20553;-70
2021/06/19 06:11:54;;;;;;;6.43;5.80;;;24.60;85.50;32.20;99525.00;;;;5073609;28;20458;-70
2021/06/19 06:14:20;;;;;;;6.33;5.57;;;24.60;85.50;32.20;99517.00;;;;5091526;28;20697;-70
2021/06/19 06:16:46;;;;;;;6.90;5.93;;;24.60;85.50;32.20;99510.00;;;;5090981;28;20218;-70
2021/06/19 06:19:12;;;;;;;6.23;5.63;;;24.60;85.50;32.40;99520.00;;;;5089507;28;20434;-70
2021/06/19 06:21:37;;;;;;;6.17;5.57;;;24.60;85.50;32.40;99516.00;;;;5091973;28;20220;-70
2021/06/19 06:24:04;;;;;;;6.47;5.20;;;24.60;85.50;32.20;99514.00;;;;5090027;28;20459;-70
2021/06/19 06:26:30;;;;;;;6.10;5.43;;;24.60;85.50;32.20;99513.00;;;;5089724;28;20215;-70
2021/06/19 06:28:56;;;;;;;5.97;5.10;;;24.60;85.50;32.20;99527.00;;;;5073388;28;20426;-70
2021/06/19 06:31:22;;;;;;;5.97;5.37;;;24.60;85.50;32.30;99522.00;;;;5091803;28;20692;-70
2021/06/19 06:33:48;;;;;;;6.87;5.57;;;24.60;85.50;32.20;99516.00;;;;5071352;28;20498;-70
2021/06/19 06:36:13;;;;;;;6.10;5.50;;;24.60;85.60;32.30;99532.00;;;;5090516;28;20396;-70
2021/06/19 06:38:39;;;;;;;6.43;5.73;;;24.60;85.50;32.40;99511.00;;;;5089862;28;20442;-70
2021/06/19 06:41:05;;;;;;;6.37;5.77;;;24.60;85.50;32.30;99506.00;;;;5073131;28;20203;-70
2021/06/19 06:43:31;;;;;;;6.40;5.70;;;24.60;85.50;32.20;99510.00;;;;5089660;28;20653;-69
2021/06/19 06:45:56;;;;;;;5.80;5.07;;;24.60;85.60;32.40;99504.00;;;;5090508;28;20218;-70
2021/06/19 06:48:23;;;;;;;6.00;5.27;;;24.60;85.60;32.30;99503.00;;;;5090188;28;20215;-70
2021/06/19 06:50:50;;;;;;;6.67;5.77;;;24.60;85.60;32.10;99515.00;;;;5091465;28;20215;-70
2021/06/19 06:53:15;;;;;;;6.07;5.47;;;24.60;85.60;32.40;99492.00;;;;5089538;28;20745;-70
2021/06/19 06:55:41;;;;;;;6.07;5.47;;;24.60;85.60;32.20;99496.00;;;;5088844;28;20844;-70
2021/06/19 06:58:07;;;;;;;7.00;5.87;;;24.60;85.70;32.30;99504.00;;;;5089998;28;20225;-70
2021/06/19 07:00:33;;;;;;;6.63;5.67;;;24.60;85.70;32.20;99514.00;;;;5072315;28;20192;-70
2021/06/19 07:02:59;;;;;;;6.40;5.50;;;24.60;85.70;32.40;99502.00;;;;5089486;28;20204;-70
2021/06/19 07:05:25;;;;;;;6.87;5.73;;;24.60;85.60;32.30;99513.00;;;;5072356;28;20222;-70
2021/06/19 07:07:50;;;;;;;6.43;5.30;;;24.60;85.70;32.20;99518.00;;;;5090791;28;20484;-70
2021/06/19 07:10:16;;;;;;;6.63;5.90;;;24.60;85.70;32.20;99517.00;;;;5089206;28;21061;-70
2021/06/19 07:12:43;;;;;;;6.30;5.70;;;24.60;85.70;32.30;99513.00;;;;5073040;28;20203;-70
2021/06/19 07:15:11;;;;;;;6.30;5.47;;;24.60;85.70;32.30;99501.00;;;;5072208;28;20561;-70
2021/06/19 07:17:37;;;;;;;7.00;6.13;;;24.60;85.70;32.20;99507.00;;;;5072253;28;20848;-70
2021/06/19 07:20:08;;;;;;;6.60;5.47;;;24.60;85.70;32.30;99507.00;;;;5089153;28;20438;-70
2021/06/19 07:22:34;;;;;;;6.70;5.90;;;24.60;85.70;32.30;99504.00;;;;5072723;28;20880;-70
2021/06/19 07:25:01;;;;;;;5.97;5.23;;;24.60;85.70;32.20;99498.00;;;;5089611;28;20803;-70
2021/06/19 07:27:28;;;;;;;6.53;5.77;;;24.60;85.80;32.10;99503.00;;;;5089723;28;20812;-70
2021/06/19 07:29:54;;;;;;;8.87;5.80;;;24.60;85.70;32.20;99509.00;;;;5088236;28;20504;-71
2021/06/19 07:32:20;;;;;;;6.90;6.10;;;24.60;85.70;32.20;99503.00;;;;5089231;28;20551;-71
2021/06/19 07:34:46;;;;;;;8.83;5.70;;;24.60;85.70;32.20;99510.00;;;;5088611;28;20232;-70
2021/06/19 07:37:11;;;;;;;6.50;5.80;;;24.60;85.70;32.10;99505.00;;;;5088775;28;20205;-70
2021/06/19 07:39:37;;;;;;;6.00;5.20;;;24.60;85.70;32.10;99509.00;;;;5089009;28;20187;-71
2021/06/19 07:42:04;;;;;;;6.87;5.50;;;24.60;85.70;32.10;99506.00;;;;5089447;28;20200;-70
2021/06/19 07:44:31;;;;;;;6.50;5.67;;;24.60;85.80;32.20;99506.00;;;;5087995;28;20544;-71
2021/06/19 07:46:58;;;;;;;5.83;5.20;;;24.60;85.80;32.20;99496.00;;;;5090787;28;20461;-70
2021/06/19 07:49:26;;;;;;;6.20;5.37;;;24.60;85.80;32.20;99496.00;;;;5071616;28;20801;-70
2021/06/19 07:51:51;;;;;;;6.07;5.20;;;24.60;85.80;32.30;99487.00;;;;5088701;28;20466;-70
2021/06/19 07:54:17;;;;;;;6.30;5.40;;;24.60;85.80;32.20;99491.00;;;;5088880;28;20444;-71
2021/06/19 07:56:43;;;;;;;7.03;6.33;;;24.60;85.80;32.20;99478.00;;;;5088559;28;20286;-70
2021/06/19 07:59:09;;;;;;;5.83;5.23;;;24.60;85.80;32.20;99483.00;;;;5085973;28;20172;-69
2021/06/19 08:01:35;;;;;;;6.93;6.23;;;24.60;85.90;32.20;99487.00;;;;5057475;28;20819;-70
2021/06/19 08:04:00;;;;;;;6.83;5.90;;;24.60;86.00;32.20;99491.00;;;;5067944;28;20405;-70
2021/06/19 08:06:26;;;;;;;5.93;5.30;;;24.50;85.80;32.30;99485.00;;;;5079651;28;20220;-70
2021/06/19 08:08:54;;;;;;;7.33;5.80;;;24.60;86.00;32.20;99468.00;;;;5089746;28;20179;-70
2021/06/19 08:11:23;;;;;;;7.10;5.73;;;24.60;86.10;32.20;99465.00;;;;5104192;28;20485;-70
2021/06/19 08:13:49;;;;;;;6.40;5.13;;;24.60;86.00;32.10;99468.00;;;;5104961;28;20936;-70
2021/06/19 08:16:18;;;;;;;5.93;5.33;;;24.60;86.10;32.20;99473.00;;;;5103869;28;20974;-70
2021/06/19 08:18:45;;;;;;;6.60;5.90;;;24.60;86.10;32.20;99469.00;;;;5095644;28;20866;-70
2021/06/19 08:21:11;;;;;;;5.47;4.87;;;24.60;86.00;32.20;99465.00;;;;5088051;28;20778;-70
2021/06/19 08:23:37;;;;;;;6.23;5.17;;;24.60;86.10;32.20;99474.00;;;;5088081;28;20449;-70
2021/06/19 08:26:02;;;;;;;6.10;5.40;;;24.60;86.10;32.20;99474.00;;;;5087143;28;20457;-70
2021/06/19 08:28:30;;;;;;;6.07;5.43;;;24.60;86.10;32.30;99481.00;;;;5071926;28;20282;-70
2021/06/19 08:30:56;;;;;;;6.37;5.40;;;24.60;86.20;32.20;99468.00;;;;5087056;28;20211;-70
2021/06/19 08:33:21;;;;;;;5.40;4.73;;;24.60;86.10;32.30;99473.00;;;;5087684;28;20692;-71
2021/06/19 08:35:47;;;;;;;6.10;5.23;;;24.60;86.10;32.30;99485.00;;;;5087215;28;20184;-70
2021/06/19 08:38:13;;;;;;;6.53;5.30;;;24.60;86.10;32.30;99463.00;;;;5087997;28;20187;-70
2021/06/19 08:40:38;;;;;;;6.07;5.47;;;24.60;86.10;32.30;99474.00;;;;5069847;28;20279;-70
2021/06/19 08:43:07;;;;;;;5.57;4.90;;;24.60;86.20;32.30;99473.00;;;;5088493;28;20190;-70
2021/06/19 08:45:33;;;;;;;6.93;6.13;;;24.60;86.10;32.40;99463.00;;;;5086760;28;20181;-70
2021/06/19 08:48:04;;;;;;;6.20;5.20;;;24.60;86.20;32.40;99451.00;;;;5087462;28;20492;-71
2021/06/19 08:50:30;;;;;;;6.20;5.50;;;24.60;86.20;32.30;99468.00;;;;5087753;28;20554;-70
2021/06/19 08:52:58;;;;;;;6.00;5.40;;;24.60;86.20;32.40;99447.00;;;;5088001;28;20461;-70
2021/06/19 08:55:24;;;;;;;5.93;5.23;;;24.60;86.10;32.40;99446.00;;;;5072639;28;20450;-71
2021/06/19 08:57:50;;;;;;;6.10;5.30;;;24.60;86.10;32.40;99461.00;;;;5067736;28;20462;-70
2021/06/19 09:00:17;;;;;;;6.33;5.40;;;24.60;86.20;32.50;99457.00;;;;5067877;28;20174;-70
2021/06/19 09:02:43;;;;;;;6.60;5.80;;;24.60;86.20;32.40;99449.00;;;;5050399;28;20693;-70
2021/06/19 09:05:23;;;;;;;6.10;5.07;;;24.60;86.20;32.40;99455.00;;;;5067103;28;20487;-70
2021/06/19 09:07:51;;;;;;;5.83;5.23;;;24.60;86.20;32.60;99450.00;;;;5067398;28;21019;-70
2021/06/19 09:10:31;;;;;;;7.20;5.50;;;24.60;86.20;32.50;99451.00;;;;5050915;28;20546;-70
2021/06/19 09:13:09;;;;;;;6.10;5.50;;;24.60;86.20;32.40;99449.00;;;;5067513;28;20456;-70
2021/06/19 09:15:54;;;;;;;6.03;5.20;;;24.60;86.20;32.60;99448.00;;;;5066485;28;20452;-71
2021/06/19 09:18:22;;;;;;;6.50;5.80;;;24.60;86.20;32.50;99449.00;;;;5068680;28;20511;-70
2021/06/19 09:20:56;;;;;;;5.50;4.67;;;24.60;86.20;32.50;99450.00;;;;5069583;28;20975;-70
2021/06/19 09:23:54;;;;;;;6.10;5.03;;;24.60;86.20;32.50;99462.00;;;;5071954;28;20531;-70
2021/06/19 09:26:21;;;;;;;5.47;4.90;;;24.60;86.20;32.60;99453.00;;;;5016756;28;20620;-71
2021/06/19 09:29:10;;;;;;;6.60;5.73;;;24.60;86.20;32.50;99461.00;;;;5070845;28;20959;-70
2021/06/19 09:31:46;;;;;;;5.77;4.87;;;24.60;86.20;32.50;99459.00;;;;5071923;28;20483;-70
2021/06/19 09:34:23;;;;;;;5.90;5.00;;;24.70;86.30;32.40;99465.00;;;;5055951;28;20525;-70
2021/06/19 09:36:58;;;;;;;6.40;5.20;;;24.60;86.20;32.50;99457.00;;;;5054354;28;20460;-70
2021/06/19 09:39:29;;;;;;;5.53;4.93;;;24.70;86.30;32.40;99449.00;;;;5071628;28;20465;-71
2021/06/19 09:42:02;;;;;;;6.20;5.53;;;24.70;86.30;32.60;99455.00;;;;5054654;28;20915;-71
2021/06/19 09:44:37;;;;;;;6.17;5.20;;;24.70;86.30;32.60;99451.00;;;;5071238;28;20507;-71
2021/06/19 09:47:03;;;;;;;7.00;5.13;;;24.70;86.30;32.60;99455.00;;;;5054553;28;20549;-71
2021/06/19 09:49:31;;;;;;;7.73;5.50;;;24.70;86.50;32.80;99458.00;;;;5053989;28;20438;-71
2021/06/19 09:51:57;;;;;;;8.37;6.60;;;24.70;86.20;32.90;99460.00;;;;5053730;28;20539;-73
2021/06/19 09:54:23;;;;;;;8.03;6.53;;;24.70;85.00;32.90;99458.00;;;;5071015;28;20444;-73
2021/06/19 09:56:56;;;;;;;10.67;6.23;;;24.80;84.60;33.00;99453.00;;;;5070159;28;20208;-72
2021/06/19 09:59:30;;;;;;;8.13;6.63;;;24.80;84.20;33.00;99435.00;;;;5070774;28;20292;-73
2021/06/19 10:01:58;;;;;;;7.33;6.63;;;24.80;84.00;33.10;99454.00;;;;5054023;28;20513;-73
2021/06/19 10:04:29;;;;;;;10.13;7.17;;;24.90;84.00;33.10;99439.00;;;;5053715;28;20688;-73
2021/06/19 10:06:56;;;;;;;7.33;6.53;;;24.90;83.80;33.10;99453.00;;;;5053459;28;20482;-73
2021/06/19 10:09:21;;;;;;;8.33;6.47;;;24.90;83.40;33.10;99459.00;;;;5070498;28;20440;-73
2021/06/19 10:11:53;;;;;;;7.10;6.40;;;24.90;83.10;33.00;99455.00;;;;5058716;28;20550;-73
2021/06/19 10:14:21;;;;;;;6.90;6.20;;;25.00;82.60;33.10;99459.00;;;;5038647;28;20618;-72
2021/06/19 10:16:53;;;;;;;7.00;6.30;;;25.00;82.10;33.10;99434.00;;;;5054848;28;20467;-73
2021/06/19 10:19:22;;;;;;;9.77;6.70;;;25.00;81.80;33.00;99441.00;;;;5089625;28;20521;-73
2021/06/19 10:21:55;;;;;;;9.03;7.17;;;25.00;81.30;33.20;99439.00;;;;5090151;28;20814;-73
2021/06/19 10:24:24;;;;;;;10.20;6.80;;;25.00;80.90;33.10;99448.00;;;;5090894;28;20444;-73
2021/06/19 10:26:50;;;;;;;7.37;6.20;;;25.00;80.70;33.20;99441.00;;;;5088329;28;20979;-73
2021/06/19 10:29:16;;;;;;;8.57;6.73;;;25.00;80.80;33.20;99437.00;;;;5090412;28;20492;-73
2021/06/19 10:31:49;;;;;;;7.13;6.40;;;25.10;80.80;33.20;99438.00;;;;5105961;28;20478;-73
2021/06/19 10:34:26;;;;;;;8.70;7.03;;;25.10;80.60;33.20;99434.00;;;;5106031;28;20476;-73
2021/06/19 10:37:03;;;;;;;8.20;6.00;;;25.10;80.50;33.30;99429.00;;;;5089265;28;21024;-73
2021/06/19 10:39:41;;;;;;;7.10;6.00;;;25.10;80.40;33.30;99427.00;;;;5088725;28;20465;-73
2021/06/19 10:42:16;;;;;;;7.83;7.00;;;25.10;80.40;33.40;99439.00;;;;5105554;28;20482;-73
2021/06/19 10:45:06;;;;;;;9.03;6.40;;;25.10;80.40;33.40;99435.00;;;;5091036;28;20428;-74
2021/06/19 10:48:00;;;;;;;7.60;5.93;;;25.20;80.50;33.30;99441.00;;;;5067155;28;20972;-73
2021/06/19 10:50:26;;;;;;;8.60;6.77;;;25.20;80.60;33.40;99428.00;;;;5106544;28;20500;-73
2021/06/19 10:53:10;;;;;;;7.40;6.70;;;25.20;80.60;33.40;99433.00;;;;5105780;28;20791;-73
2021/06/19 10:55:43;;;;;;;6.83;6.13;;;25.20;80.60;33.50;99430.00;;;;5106188;28;20193;-73
2021/06/19 10:58:21;;;;;;;6.90;6.20;;;25.20;80.50;33.50;99421.00;;;;5106432;28;20438;-73